createdAt,value
2024-05-09T00:01:49.772Z,61.14
2024-05-09T00:04:37.671Z,61.44
2024-05-09T00:07:24.577Z,61.47
2024-05-09T00:10:18.282Z,61.66
2024-05-09T00:13:11.869Z,61.83
2024-05-09T00:15:59.484Z,61.81
2024-05-09T00:18:45.967Z,61.46
2024-05-09T00:21:32.686Z,61.03
2024-05-09T00:24:21.547Z,60.90
2024-05-09T00:27:09.042Z,61.16
2024-05-09T00:29:57.007Z,61.59
2024-05-09T00:32:43.879Z,61.87
2024-05-09T00:35:30.771Z,62.10
2024-05-09T00:38:17.903Z,62.05
2024-05-09T00:41:04.228Z,62.38
2024-05-09T00:43:51.679Z,62.56
2024-05-09T00:46:38.706Z,61.81
2024-05-09T00:49:26.815Z,61.00
2024-05-09T00:52:13.617Z,60.44
2024-05-09T00:55:01.021Z,59.80
2024-05-09T00:57:47.979Z,59.23
2024-05-09T01:00:39.354Z,59.14
2024-05-09T01:03:28.077Z,59.38
2024-05-09T01:06:15.011Z,59.18
2024-05-09T01:09:02.099Z,58.77
2024-05-09T01:11:48.693Z,58.57
2024-05-09T01:14:37.334Z,58.17
2024-05-09T01:17:25.288Z,58.42
2024-05-09T01:20:19.876Z,58.14
2024-05-09T01:23:11.190Z,58.94
2024-05-09T01:25:58.576Z,60.57
2024-05-09T01:28:45.366Z,61.52
2024-05-09T01:31:32.123Z,62.04
2024-05-09T01:34:19.055Z,63.10
2024-05-09T01:37:05.786Z,63.09
2024-05-09T01:39:52.521Z,62.97
2024-05-09T01:42:39.259Z,63.42
2024-05-09T01:45:25.916Z,63.91
2024-05-09T01:48:12.803Z,64.41
2024-05-09T01:51:00.156Z,64.56
2024-05-09T01:53:47.057Z,64.98
2024-05-09T01:56:33.564Z,65.61
2024-05-09T01:59:20.405Z,66.24
2024-05-09T02:02:07.714Z,66.97
2024-05-09T02:04:54.253Z,67.49
2024-05-09T02:07:40.923Z,67.36
2024-05-09T02:10:32.477Z,67.99
2024-05-09T02:13:20.073Z,68.17
2024-05-09T02:16:14.828Z,68.01
2024-05-09T02:19:02.042Z,68.23
2024-05-09T02:21:48.840Z,68.56
2024-05-09T02:24:35.742Z,69.16
2024-05-09T02:27:22.079Z,69.32
2024-05-09T02:30:18.719Z,69.70
2024-05-09T02:33:14.391Z,70.00
2024-05-09T02:36:03.211Z,69.61
2024-05-09T02:38:49.831Z,69.53
2024-05-09T02:41:36.773Z,69.30
2024-05-09T02:44:23.583Z,69.62
2024-05-09T02:47:10.681Z,69.36
2024-05-09T02:49:57.822Z,69.68
2024-05-09T02:52:44.785Z,69.45
2024-05-09T02:55:31.625Z,69.49
2024-05-09T02:58:18.369Z,69.33
2024-05-09T03:01:05.136Z,69.15
2024-05-09T03:03:52.375Z,69.14
2024-05-09T03:06:42.964Z,69.29
2024-05-09T03:09:29.393Z,69.14
2024-05-09T03:12:19.996Z,69.27
2024-05-09T03:15:07.021Z,69.74
2024-05-09T03:17:53.525Z,69.97
2024-05-09T03:20:43.821Z,69.95
2024-05-09T03:23:30.686Z,70.22
2024-05-09T03:26:18.718Z,70.39
2024-05-09T03:29:06.166Z,70.50
2024-05-09T03:31:53.017Z,70.32
2024-05-09T03:34:40.057Z,70.71
2024-05-09T03:37:26.826Z,70.51
2024-05-09T03:40:20.482Z,70.61
2024-05-09T03:43:10.522Z,70.58
2024-05-09T03:45:58.108Z,70.52
2024-05-09T03:48:45.127Z,70.65
2024-05-09T03:51:31.980Z,70.47
2024-05-09T03:54:18.738Z,70.58
2024-05-09T03:57:05.357Z,70.71
2024-05-09T03:59:52.675Z,70.66
2024-05-09T04:02:47.624Z,70.88
2024-05-09T04:05:34.974Z,70.49
2024-05-09T04:08:21.876Z,70.25
2024-05-09T04:11:11.192Z,69.83
2024-05-09T04:13:58.615Z,69.90
2024-05-09T04:16:45.435Z,69.58
2024-05-09T04:19:32.036Z,69.74
2024-05-09T04:22:19.547Z,69.16
2024-05-09T04:25:06.398Z,68.90
2024-05-09T04:27:55.770Z,68.99
2024-05-09T04:30:43.229Z,68.65
2024-05-09T04:33:30.715Z,68.29
2024-05-09T04:36:17.241Z,67.78
2024-05-09T04:39:04.276Z,67.53
2024-05-09T04:41:53.353Z,67.51
2024-05-09T04:44:43.566Z,67.66
2024-05-09T04:47:30.634Z,67.82
2024-05-09T04:53:28.029Z,67.87
2024-05-09T04:56:17.193Z,67.80
2024-05-09T05:02:28.607Z,67.90
2024-05-09T05:05:28.049Z,67.75
2024-05-09T05:08:47.135Z,67.73
2024-05-09T05:11:35.173Z,68.04
2024-05-09T05:14:24.512Z,68.33
2024-05-09T05:17:13.162Z,68.35
2024-05-09T05:20:02.400Z,67.86
2024-05-09T05:22:49.402Z,68.15
2024-05-09T05:25:37.201Z,67.88
2024-05-09T05:28:24.334Z,67.70
2024-05-09T05:31:11.084Z,67.49
2024-05-09T05:33:58.320Z,67.68
2024-05-09T05:36:45.521Z,67.61
2024-05-09T05:39:32.275Z,67.28
2024-05-09T05:42:19.063Z,67.18
2024-05-09T05:45:09.911Z,67.42
2024-05-09T05:47:57.230Z,67.29
2024-05-09T05:50:44.463Z,67.36
2024-05-09T05:53:31.795Z,67.51
2024-05-09T05:56:18.558Z,67.55
2024-05-09T05:59:05.618Z,67.82
2024-05-09T06:01:52.432Z,67.56
2024-05-09T06:04:39.868Z,67.77
2024-05-09T06:07:26.996Z,67.62
2024-05-09T06:10:21.017Z,67.21
2024-05-09T06:13:15.670Z,67.59
2024-05-09T06:16:06.027Z,67.15
2024-05-09T06:18:53.346Z,66.80
2024-05-09T06:21:40.124Z,66.19
2024-05-09T06:24:27.996Z,66.41
2024-05-09T06:27:14.793Z,66.44
2024-05-09T06:30:02.565Z,65.45
2024-05-09T06:32:49.764Z,65.62
2024-05-09T06:35:40.210Z,64.98
2024-05-09T06:38:28.407Z,64.57
2024-05-09T06:41:17.232Z,63.79
2024-05-09T06:44:16.323Z,63.09
2024-05-09T06:47:03.819Z,63.23
2024-05-09T06:50:27.911Z,62.29
2024-05-09T06:53:42.600Z,61.75
2024-05-09T06:56:29.895Z,60.75
2024-05-09T06:59:22.574Z,60.99
2024-05-09T07:02:19.999Z,60.82
2024-05-09T07:05:17.903Z,60.32
2024-05-09T07:08:26.324Z,59.67
2024-05-09T07:11:41.843Z,59.04
2024-05-09T07:14:49.187Z,59.58
2024-05-09T07:18:18.347Z,59.67
2024-05-09T07:21:07.211Z,58.57
2024-05-09T07:24:17.966Z,58.34
2024-05-09T07:27:16.876Z,59.11
2024-05-09T07:30:33.317Z,59.66
2024-05-09T07:33:41.386Z,60.00
2024-05-09T07:36:30.070Z,60.13
2024-05-09T07:42:41.995Z,60.94
2024-05-09T07:45:51.715Z,61.17
2024-05-09T07:53:17.149Z,62.20
2024-05-09T07:55:06.844Z,63.72
2024-05-09T08:01:47.352Z,65.51
2024-05-09T08:04:47.839Z,67.66
2024-05-09T08:07:50.488Z,67.41
2024-05-09T08:10:56.443Z,68.71
2024-05-09T08:13:45.540Z,68.58
2024-05-09T08:16:54.852Z,69.49
2024-05-09T08:19:42.444Z,70.09
2024-05-09T08:25:53.694Z,69.50
2024-05-09T08:28:40.966Z,69.73
2024-05-09T08:31:41.182Z,70.22
2024-05-09T08:34:35.217Z,70.18
2024-05-09T08:37:38.757Z,69.26
2024-05-09T08:40:37.503Z,69.65
2024-05-09T08:43:38.999Z,70.63
2024-05-09T08:46:33.447Z,71.08
2024-05-09T08:49:29.935Z,71.05
2024-05-09T08:52:17.975Z,69.65
2024-05-09T08:55:08.505Z,70.11
2024-05-09T08:58:02.210Z,70.07
2024-05-09T09:00:49.702Z,70.01
2024-05-09T09:03:38.663Z,69.36
2024-05-09T09:06:27.642Z,69.06
2024-05-09T09:09:14.851Z,69.61
2024-05-09T09:12:11.885Z,71.60
2024-05-09T09:15:03.644Z,71.09
2024-05-09T09:18:11.576Z,70.32
2024-05-09T09:24:13.674Z,70.98
2024-05-09T09:27:05.232Z,72.32
2024-05-09T09:29:52.000Z,72.70
2024-05-09T09:32:38.767Z,73.60
2024-05-09T09:35:35.831Z,74.36
2024-05-09T09:39:16.638Z,73.42
2024-05-09T09:42:05.242Z,73.95
2024-05-09T09:45:02.094Z,74.75
2024-05-09T09:48:10.750Z,73.96
2024-05-09T09:51:14.002Z,70.70
2024-05-09T09:54:08.776Z,70.64
2024-05-09T09:57:06.028Z,71.82
2024-05-09T10:00:11.592Z,71.29
2024-05-09T10:03:02.530Z,69.56
2024-05-09T10:05:49.933Z,69.07
2024-05-09T10:08:37.919Z,69.02
2024-05-09T10:11:29.575Z,68.69
2024-05-09T10:14:23.513Z,68.79
2024-05-09T10:17:11.450Z,67.78
2024-05-09T10:20:14.807Z,67.16
2024-05-09T10:23:35.297Z,67.34
2024-05-09T10:26:41.971Z,66.64
2024-05-09T10:29:29.111Z,66.35
2024-05-09T10:35:33.652Z,66.74
2024-05-09T10:38:21.443Z,66.31
2024-05-09T10:41:11.176Z,65.17
2024-05-09T10:43:57.658Z,65.78
2024-05-09T10:47:03.631Z,66.63
2024-05-09T10:50:15.446Z,65.82
2024-05-09T10:53:11.929Z,65.60
2024-05-09T10:56:07.117Z,66.76
2024-05-09T10:58:58.293Z,64.67
2024-05-09T11:02:29.216Z,64.57
2024-05-09T11:05:16.532Z,62.14
2024-05-09T11:08:03.916Z,60.01
2024-05-09T11:10:52.780Z,59.98
2024-05-09T11:13:42.689Z,59.96
2024-05-09T11:16:29.518Z,60.14
2024-05-09T11:19:19.724Z,56.46
2024-05-09T11:22:07.810Z,56.18
2024-05-09T11:24:56.644Z,55.42
2024-05-09T11:27:43.845Z,54.74
2024-05-09T11:30:35.230Z,53.05
2024-05-09T11:33:21.991Z,51.42
2024-05-09T11:36:09.810Z,51.29
2024-05-09T11:38:56.235Z,50.99
2024-05-09T11:41:42.781Z,51.90
2024-05-09T11:44:29.432Z,51.57
2024-05-09T11:50:48.409Z,48.92
2024-05-09T11:53:35.241Z,49.08
2024-05-09T11:56:22.173Z,49.58
2024-05-09T11:59:09.474Z,49.04
2024-05-09T12:01:56.162Z,50.57
2024-05-09T12:04:43.080Z,50.08
2024-05-09T12:07:30.844Z,51.45
2024-05-09T12:10:22.267Z,51.73
2024-05-09T12:13:12.658Z,51.65
2024-05-09T12:16:37.782Z,50.90
2024-05-09T12:19:27.697Z,52.47
2024-05-09T12:22:14.668Z,52.02
2024-05-09T12:25:04.624Z,51.07
2024-05-09T12:27:53.053Z,50.91
2024-05-09T12:30:41.554Z,49.75
2024-05-09T12:33:29.891Z,49.57
2024-05-09T12:36:16.665Z,49.72
2024-05-09T12:39:06.157Z,49.53
2024-05-09T12:41:52.576Z,49.32
2024-05-09T12:44:40.703Z,49.14
2024-05-09T12:47:27.693Z,50.16
2024-05-09T12:50:25.236Z,49.72
2024-05-09T12:53:18.284Z,50.78
2024-05-09T12:56:07.217Z,51.58
2024-05-09T13:02:37.267Z,51.52
2024-05-09T13:05:30.106Z,52.04
2024-05-09T13:08:17.943Z,52.46
2024-05-09T13:11:08.452Z,51.34
2024-05-09T13:14:10.475Z,51.22
2024-05-09T13:16:57.300Z,51.60
2024-05-09T13:19:44.254Z,52.04
2024-05-09T13:22:31.028Z,52.30
2024-05-09T13:25:17.767Z,53.24
2024-05-09T13:28:06.710Z,52.30
2024-05-09T13:30:54.139Z,50.96
2024-05-09T13:33:40.837Z,51.41
2024-05-09T13:36:27.423Z,51.61
2024-05-09T13:39:14.764Z,51.94
2024-05-09T13:42:01.609Z,51.98
2024-05-09T13:44:48.385Z,52.07
2024-05-09T13:47:35.365Z,52.20
2024-05-09T13:50:30.951Z,50.95
2024-05-09T13:53:21.838Z,48.87
2024-05-09T13:56:08.939Z,47.97
2024-05-09T13:58:55.699Z,48.43
2024-05-09T14:01:42.513Z,48.82
2024-05-09T14:04:31.004Z,49.99
2024-05-09T14:07:17.830Z,50.25
2024-05-09T14:10:09.024Z,50.74
2024-05-09T14:12:58.301Z,51.36
2024-05-09T14:15:46.143Z,51.32
2024-05-09T14:18:33.048Z,51.43
2024-05-09T14:21:20.081Z,49.86
2024-05-09T14:24:06.967Z,47.75
2024-05-09T14:26:53.711Z,45.08
2024-05-09T14:29:40.496Z,42.44
2024-05-09T14:32:27.369Z,40.52
2024-05-09T14:35:16.329Z,39.80
2024-05-09T14:38:04.003Z,38.76
2024-05-09T14:40:58.173Z,37.95
2024-05-09T14:44:12.464Z,37.32
2024-05-09T14:46:59.655Z,38.42
2024-05-09T14:49:47.016Z,40.39
2024-05-09T14:52:33.804Z,41.21
2024-05-09T14:55:20.423Z,41.08
2024-05-09T14:58:08.338Z,40.81
2024-05-09T15:00:56.489Z,42.01
2024-05-09T15:03:43.494Z,43.13
2024-05-09T15:06:30.139Z,43.54
2024-05-09T15:25:26.974Z,49.24
2024-05-09T15:28:58.799Z,50.28
2024-05-09T15:32:40.457Z,50.38
